Terminal Aerodrome Forecast
Issued by NWS

Home | Current Version | Previous Version | Text Only | Print | Product List | Glossary Off
Versions: 1 2 3 4 5 6 7 8 9 10 11 12 13 14 15 16 17 18 19

000
FTUS43 KMPX 192300
TAFAXN
TAF
KAXN 192339Z 2000/2024 24008KT P6SM SCT020 BKN100
     FM200800 30011KT P6SM SCT120 BKN250
     FM202100 30015G22KT P6SM BKN045 OVC080
      TEMPO 2021/2024 2SM TSRA OVC030CB=

USA.gov is the U.S. government's official web portal to all federal, state and local government web resources and services.